sensor_id;sensor_type;location;lat;lon;timestamp;temperature;humidity
55135;DHT22;41031;44.750;11.308;2022-10-16T00:01:31;19.00;81.00
55135;DHT22;41031;44.750;11.308;2022-10-16T00:03:59;19.00;81.20
55135;DHT22;41031;44.750;11.308;2022-10-16T00:06:28;19.00;81.30
55135;DHT22;41031;44.750;11.308;2022-10-16T00:08:55;19.00;81.30
55135;DHT22;41031;44.750;11.308;2022-10-16T00:11:27;19.00;81.50
55135;DHT22;41031;44.750;11.308;2022-10-16T00:13:57;19.00;81.60
55135;DHT22;41031;44.750;11.308;2022-10-16T00:16:26;19.00;81.70
55135;DHT22;41031;44.750;11.308;2022-10-16T00:18:54;18.90;81.80
55135;DHT22;41031;44.750;11.308;2022-10-16T00:21:23;19.00;81.90
55135;DHT22;41031;44.750;11.308;2022-10-16T00:23:54;18.90;82.00
55135;DHT22;41031;44.750;11.308;2022-10-16T00:26:22;18.90;82.10
55135;DHT22;41031;44.750;11.308;2022-10-16T00:28:50;18.90;82.10
55135;DHT22;41031;44.750;11.308;2022-10-16T00:31:19;18.90;82.20
55135;DHT22;41031;44.750;11.308;2022-10-16T00:33:47;18.90;82.30
55135;DHT22;41031;44.750;11.308;2022-10-16T00:36:19;18.90;82.40
55135;DHT22;41031;44.750;11.308;2022-10-16T00:38:47;18.90;82.50
55135;DHT22;41031;44.750;11.308;2022-10-16T00:41:17;18.90;82.40
55135;DHT22;41031;44.750;11.308;2022-10-16T00:43:48;18.90;82.50
55135;DHT22;41031;44.750;11.308;2022-10-16T00:46:32;18.90;82.60
55135;DHT22;41031;44.750;11.308;2022-10-16T00:49:18;18.90;82.70
55135;DHT22;41031;44.750;11.308;2022-10-16T00:51:49;18.90;82.80
55135;DHT22;41031;44.750;11.308;2022-10-16T00:54:20;18.90;82.70
55135;DHT22;41031;44.750;11.308;2022-10-16T00:56:48;18.90;82.80
55135;DHT22;41031;44.750;11.308;2022-10-16T00:59:30;18.90;82.80
55135;DHT22;41031;44.750;11.308;2022-10-16T01:01:58;18.90;82.80
55135;DHT22;41031;44.750;11.308;2022-10-16T01:04:26;18.90;82.80
55135;DHT22;41031;44.750;11.308;2022-10-16T01:12:50;18.80;82.90
55135;DHT22;41031;44.750;11.308;2022-10-16T01:21:03;18.80;82.70
55135;DHT22;41031;44.750;11.308;2022-10-16T01:31:21;18.70;83.10
55135;DHT22;41031;44.750;11.308;2022-10-16T01:34:00;18.70;83.20
55135;DHT22;41031;44.750;11.308;2022-10-16T01:36:36;18.70;83.30
55135;DHT22;41031;44.750;11.308;2022-10-16T01:39:07;18.70;83.40
55135;DHT22;41031;44.750;11.308;2022-10-16T01:41:39;18.60;83.40
55135;DHT22;41031;44.750;11.308;2022-10-16T01:44:14;18.60;83.60
55135;DHT22;41031;44.750;11.308;2022-10-16T01:46:45;18.60;83.80
55135;DHT22;41031;44.750;11.308;2022-10-16T01:49:13;18.60;83.80
55135;DHT22;41031;44.750;11.308;2022-10-16T01:51:44;18.60;83.80
55135;DHT22;41031;44.750;11.308;2022-10-16T01:54:14;18.60;83.90
55135;DHT22;41031;44.750;11.308;2022-10-16T01:56:43;18.60;84.10
55135;DHT22;41031;44.750;11.308;2022-10-16T01:59:13;18.60;84.20
55135;DHT22;41031;44.750;11.308;2022-10-16T02:01:45;18.60;84.40
55135;DHT22;41031;44.750;11.308;2022-10-16T02:04:20;18.60;84.40
55135;DHT22;41031;44.750;11.308;2022-10-16T02:06:49;18.60;84.50
55135;DHT22;41031;44.750;11.308;2022-10-16T02:09:16;18.50;84.60
55135;DHT22;41031;44.750;11.308;2022-10-16T02:11:44;18.50;84.60
55135;DHT22;41031;44.750;11.308;2022-10-16T02:14:11;18.50;84.70
55135;DHT22;41031;44.750;11.308;2022-10-16T02:16:41;18.50;84.80
55135;DHT22;41031;44.750;11.308;2022-10-16T02:19:12;18.50;84.90
55135;DHT22;41031;44.750;11.308;2022-10-16T02:22:06;18.50;85.00
55135;DHT22;41031;44.750;11.308;2022-10-16T02:27:11;18.50;85.00
55135;DHT22;41031;44.750;11.308;2022-10-16T02:29:47;18.50;85.00
55135;DHT22;41031;44.750;11.308;2022-10-16T02:32:20;18.50;84.90
55135;DHT22;41031;44.750;11.308;2022-10-16T02:34:49;18.50;84.70
55135;DHT22;41031;44.750;11.308;2022-10-16T02:37:17;18.50;84.60
55135;DHT22;41031;44.750;11.308;2022-10-16T02:39:45;18.50;84.40
55135;DHT22;41031;44.750;11.308;2022-10-16T02:42:13;18.50;84.40
55135;DHT22;41031;44.750;11.308;2022-10-16T02:44:41;18.50;84.40
55135;DHT22;41031;44.750;11.308;2022-10-16T02:47:08;18.50;84.40
55135;DHT22;41031;44.750;11.308;2022-10-16T02:49:35;18.50;84.50
55135;DHT22;41031;44.750;11.308;2022-10-16T02:52:02;18.40;84.70
55135;DHT22;41031;44.750;11.308;2022-10-16T02:54:29;18.40;84.90
55135;DHT22;41031;44.750;11.308;2022-10-16T02:56:56;18.40;85.00
55135;DHT22;41031;44.750;11.308;2022-10-16T02:59:24;18.30;85.10
55135;DHT22;41031;44.750;11.308;2022-10-16T03:01:51;18.30;85.20
55135;DHT22;41031;44.750;11.308;2022-10-16T03:04:18;18.30;85.20
55135;DHT22;41031;44.750;11.308;2022-10-16T03:06:45;18.30;85.30
55135;DHT22;41031;44.750;11.308;2022-10-16T03:09:12;18.30;85.40
55135;DHT22;41031;44.750;11.308;2022-10-16T03:11:39;18.30;85.50
55135;DHT22;41031;44.750;11.308;2022-10-16T03:14:06;18.20;85.60
55135;DHT22;41031;44.750;11.308;2022-10-16T03:16:33;18.20;85.70
55135;DHT22;41031;44.750;11.308;2022-10-16T03:19:00;18.20;85.80
55135;DHT22;41031;44.750;11.308;2022-10-16T03:21:27;18.10;85.80
55135;DHT22;41031;44.750;11.308;2022-10-16T03:23:54;18.00;86.00
55135;DHT22;41031;44.750;11.308;2022-10-16T03:26:21;18.00;86.10
55135;DHT22;41031;44.750;11.308;2022-10-16T03:28:48;18.00;86.20
55135;DHT22;41031;44.750;11.308;2022-10-16T03:31:15;17.90;86.30
55135;DHT22;41031;44.750;11.308;2022-10-16T03:33:43;17.90;86.50
55135;DHT22;41031;44.750;11.308;2022-10-16T03:36:10;17.90;86.60
55135;DHT22;41031;44.750;11.308;2022-10-16T03:38:37;17.90;86.70
55135;DHT22;41031;44.750;11.308;2022-10-16T03:41:04;17.90;86.70
55135;DHT22;41031;44.750;11.308;2022-10-16T03:43:31;17.80;86.80
55135;DHT22;41031;44.750;11.308;2022-10-16T03:45:58;17.80;87.00
55135;DHT22;41031;44.750;11.308;2022-10-16T03:48:25;17.70;87.10
55135;DHT22;41031;44.750;11.308;2022-10-16T03:50:51;17.70;87.30
55135;DHT22;41031;44.750;11.308;2022-10-16T03:53:18;17.70;87.30
55135;DHT22;41031;44.750;11.308;2022-10-16T03:55:45;17.60;87.20
55135;DHT22;41031;44.750;11.308;2022-10-16T03:58:13;17.60;87.20
55135;DHT22;41031;44.750;11.308;2022-10-16T04:00:44;17.60;87.30
55135;DHT22;41031;44.750;11.308;2022-10-16T04:03:11;17.60;87.40
55135;DHT22;41031;44.750;11.308;2022-10-16T04:05:39;17.50;87.40
55135;DHT22;41031;44.750;11.308;2022-10-16T04:08:06;17.50;87.40
55135;DHT22;41031;44.750;11.308;2022-10-16T04:10:33;17.50;87.40
55135;DHT22;41031;44.750;11.308;2022-10-16T04:13:00;17.50;87.60
55135;DHT22;41031;44.750;11.308;2022-10-16T04:15:27;17.50;87.80
55135;DHT22;41031;44.750;11.308;2022-10-16T04:17:54;17.40;87.80
55135;DHT22;41031;44.750;11.308;2022-10-16T04:20:21;17.40;87.80
55135;DHT22;41031;44.750;11.308;2022-10-16T04:22:48;17.40;87.90
55135;DHT22;41031;44.750;11.308;2022-10-16T04:25:15;17.40;88.00
55135;DHT22;41031;44.750;11.308;2022-10-16T04:27:42;17.40;88.10
55135;DHT22;41031;44.750;11.308;2022-10-16T04:30:12;17.40;88.00
55135;DHT22;41031;44.750;11.308;2022-10-16T04:32:40;17.30;88.10
55135;DHT22;41031;44.750;11.308;2022-10-16T04:35:07;17.30;88.10
55135;DHT22;41031;44.750;11.308;2022-10-16T04:37:34;17.30;88.20
55135;DHT22;41031;44.750;11.308;2022-10-16T04:40:02;17.30;88.20
55135;DHT22;41031;44.750;11.308;2022-10-16T04:42:29;17.30;88.20
55135;DHT22;41031;44.750;11.308;2022-10-16T04:44:56;17.30;88.20
55135;DHT22;41031;44.750;11.308;2022-10-16T04:47:23;17.30;88.10
55135;DHT22;41031;44.750;11.308;2022-10-16T04:49:50;17.30;88.10
55135;DHT22;41031;44.750;11.308;2022-10-16T04:52:17;17.30;88.20
55135;DHT22;41031;44.750;11.308;2022-10-16T04:54:45;17.30;88.20
55135;DHT22;41031;44.750;11.308;2022-10-16T04:57:12;17.30;88.20
55135;DHT22;41031;44.750;11.308;2022-10-16T04:59:39;17.20;88.30
55135;DHT22;41031;44.750;11.308;2022-10-16T05:02:06;17.20;88.40
55135;DHT22;41031;44.750;11.308;2022-10-16T05:04:33;17.20;88.50
55135;DHT22;41031;44.750;11.308;2022-10-16T05:07:00;17.20;88.60
55135;DHT22;41031;44.750;11.308;2022-10-16T05:09:27;17.20;88.80
55135;DHT22;41031;44.750;11.308;2022-10-16T05:11:54;17.20;88.90
55135;DHT22;41031;44.750;11.308;2022-10-16T05:14:21;17.20;88.90
55135;DHT22;41031;44.750;11.308;2022-10-16T05:16:48;17.20;88.80
55135;DHT22;41031;44.750;11.308;2022-10-16T05:19:16;17.10;88.70
55135;DHT22;41031;44.750;11.308;2022-10-16T05:21:58;17.10;88.60
55135;DHT22;41031;44.750;11.308;2022-10-16T05:24:25;17.10;88.50
55135;DHT22;41031;44.750;11.308;2022-10-16T05:26:52;17.00;88.30
55135;DHT22;41031;44.750;11.308;2022-10-16T05:29:20;17.00;88.00
55135;DHT22;41031;44.750;11.308;2022-10-16T05:31:50;16.90;88.20
55135;DHT22;41031;44.750;11.308;2022-10-16T05:34:17;16.80;88.50
55135;DHT22;41031;44.750;11.308;2022-10-16T05:36:44;16.80;88.70
55135;DHT22;41031;44.750;11.308;2022-10-16T05:39:13;16.80;88.80
55135;DHT22;41031;44.750;11.308;2022-10-16T05:41:40;16.70;89.00
55135;DHT22;41031;44.750;11.308;2022-10-16T05:44:07;16.70;88.90
55135;DHT22;41031;44.750;11.308;2022-10-16T05:46:35;16.60;88.70
55135;DHT22;41031;44.750;11.308;2022-10-16T05:49:02;16.60;88.70
55135;DHT22;41031;44.750;11.308;2022-10-16T05:51:29;16.60;88.70
55135;DHT22;41031;44.750;11.308;2022-10-16T05:53:56;16.60;88.60
55135;DHT22;41031;44.750;11.308;2022-10-16T05:56:23;16.60;88.60
55135;DHT22;41031;44.750;11.308;2022-10-16T05:58:50;16.60;88.50
55135;DHT22;41031;44.750;11.308;2022-10-16T06:01:19;16.60;88.30
55135;DHT22;41031;44.750;11.308;2022-10-16T06:03:47;16.60;87.90
55135;DHT22;41031;44.750;11.308;2022-10-16T06:06:19;16.60;87.90
55135;DHT22;41031;44.750;11.308;2022-10-16T06:08:48;16.60;88.20
55135;DHT22;41031;44.750;11.308;2022-10-16T06:11:21;16.50;88.20
55135;DHT22;41031;44.750;11.308;2022-10-16T06:13:50;16.50;88.20
55135;DHT22;41031;44.750;11.308;2022-10-16T06:16:18;16.60;88.40
55135;DHT22;41031;44.750;11.308;2022-10-16T06:18:46;16.60;88.30
55135;DHT22;41031;44.750;11.308;2022-10-16T06:21:17;16.60;88.20
55135;DHT22;41031;44.750;11.308;2022-10-16T06:23:45;16.60;88.20
55135;DHT22;41031;44.750;11.308;2022-10-16T06:26:18;16.60;88.30
55135;DHT22;41031;44.750;11.308;2022-10-16T06:28:46;16.70;88.30
55135;DHT22;41031;44.750;11.308;2022-10-16T06:31:14;16.70;88.30
55135;DHT22;41031;44.750;11.308;2022-10-16T06:33:41;16.80;88.40
55135;DHT22;41031;44.750;11.308;2022-10-16T06:36:15;16.80;88.40
55135;DHT22;41031;44.750;11.308;2022-10-16T06:38:43;16.90;88.50
55135;DHT22;41031;44.750;11.308;2022-10-16T06:41:13;16.90;88.40
55135;DHT22;41031;44.750;11.308;2022-10-16T06:43:40;17.00;88.50
55135;DHT22;41031;44.750;11.308;2022-10-16T06:46:10;17.10;88.60
55135;DHT22;41031;44.750;11.308;2022-10-16T06:48:38;17.10;88.50
55135;DHT22;41031;44.750;11.308;2022-10-16T06:53:35;17.30;88.40
55135;DHT22;41031;44.750;11.308;2022-10-16T06:56:20;17.40;87.90
55135;DHT22;41031;44.750;11.308;2022-10-16T06:58:48;17.40;88.30
55135;DHT22;41031;44.750;11.308;2022-10-16T07:01:16;17.50;88.40
55135;DHT22;41031;44.750;11.308;2022-10-16T07:03:45;17.70;88.20
55135;DHT22;41031;44.750;11.308;2022-10-16T07:06:18;17.80;87.80
55135;DHT22;41031;44.750;11.308;2022-10-16T07:08:46;18.00;87.20
55135;DHT22;41031;44.750;11.308;2022-10-16T07:11:15;18.20;86.70
55135;DHT22;41031;44.750;11.308;2022-10-16T07:13:44;18.30;86.00
55135;DHT22;41031;44.750;11.308;2022-10-16T07:16:26;18.50;85.60
55135;DHT22;41031;44.750;11.308;2022-10-16T07:18:54;18.70;85.40
55135;DHT22;41031;44.750;11.308;2022-10-16T07:21:28;18.80;85.00
55135;DHT22;41031;44.750;11.308;2022-10-16T07:23:59;19.00;84.60
55135;DHT22;41031;44.750;11.308;2022-10-16T07:26:30;19.10;84.30
55135;DHT22;41031;44.750;11.308;2022-10-16T07:28:58;19.20;83.90
55135;DHT22;41031;44.750;11.308;2022-10-16T07:31:26;19.30;83.60
55135;DHT22;41031;44.750;11.308;2022-10-16T07:33:53;19.50;83.20
55135;DHT22;41031;44.750;11.308;2022-10-16T07:36:21;19.60;82.70
55135;DHT22;41031;44.750;11.308;2022-10-16T07:38:48;19.70;82.30
55135;DHT22;41031;44.750;11.308;2022-10-16T07:41:19;19.80;82.50
55135;DHT22;41031;44.750;11.308;2022-10-16T07:43:51;20.00;81.90
55135;DHT22;41031;44.750;11.308;2022-10-16T07:46:20;20.10;81.20
55135;DHT22;41031;44.750;11.308;2022-10-16T07:48:48;20.20;80.70
55135;DHT22;41031;44.750;11.308;2022-10-16T07:51:18;20.40;80.00
55135;DHT22;41031;44.750;11.308;2022-10-16T07:53:46;20.50;79.40
55135;DHT22;41031;44.750;11.308;2022-10-16T07:56:14;20.60;79.10
55135;DHT22;41031;44.750;11.308;2022-10-16T07:58:42;20.70;78.60
55135;DHT22;41031;44.750;11.308;2022-10-16T08:01:11;20.90;78.20
55135;DHT22;41031;44.750;11.308;2022-10-16T08:03:48;21.00;77.20
55135;DHT22;41031;44.750;11.308;2022-10-16T08:06:16;21.10;76.40
55135;DHT22;41031;44.750;11.308;2022-10-16T08:08:48;21.20;76.30
55135;DHT22;41031;44.750;11.308;2022-10-16T08:11:15;21.30;75.30
55135;DHT22;41031;44.750;11.308;2022-10-16T08:13:42;21.40;74.90
55135;DHT22;41031;44.750;11.308;2022-10-16T08:16:09;21.50;74.60
55135;DHT22;41031;44.750;11.308;2022-10-16T08:18:40;21.70;74.30
55135;DHT22;41031;44.750;11.308;2022-10-16T08:21:13;21.80;73.80
55135;DHT22;41031;44.750;11.308;2022-10-16T08:23:47;21.90;73.20
55135;DHT22;41031;44.750;11.308;2022-10-16T08:26:22;22.10;72.90
55135;DHT22;41031;44.750;11.308;2022-10-16T08:28:50;22.20;72.70
55135;DHT22;41031;44.750;11.308;2022-10-16T08:31:19;22.30;72.10
55135;DHT22;41031;44.750;11.308;2022-10-16T08:33:46;22.50;71.90
55135;DHT22;41031;44.750;11.308;2022-10-16T08:36:15;22.60;71.00
55135;DHT22;41031;44.750;11.308;2022-10-16T08:38:43;22.70;70.90
55135;DHT22;41031;44.750;11.308;2022-10-16T08:48:53;22.80;69.20
55135;DHT22;41031;44.750;11.308;2022-10-16T08:51:28;22.80;69.40
55135;DHT22;41031;44.750;11.308;2022-10-16T08:54:04;22.80;69.40
55135;DHT22;41031;44.750;11.308;2022-10-16T08:56:31;22.80;69.50
55135;DHT22;41031;44.750;11.308;2022-10-16T08:59:00;22.90;69.70
55135;DHT22;41031;44.750;11.308;2022-10-16T09:01:41;23.00;69.60
55135;DHT22;41031;44.750;11.308;2022-10-16T09:10:50;23.30;68.90
55135;DHT22;41031;44.750;11.308;2022-10-16T09:13:26;23.40;68.60
55135;DHT22;41031;44.750;11.308;2022-10-16T09:16:30;23.50;67.90
55135;DHT22;41031;44.750;11.308;2022-10-16T09:19:01;23.60;67.90
55135;DHT22;41031;44.750;11.308;2022-10-16T09:21:36;23.70;67.60
55135;DHT22;41031;44.750;11.308;2022-10-16T09:24:14;23.80;66.60
55135;DHT22;41031;44.750;11.308;2022-10-16T09:26:42;23.90;66.50
55135;DHT22;41031;44.750;11.308;2022-10-16T09:29:15;23.90;66.30
55135;DHT22;41031;44.750;11.308;2022-10-16T09:31:42;24.00;66.10
55135;DHT22;41031;44.750;11.308;2022-10-16T09:34:35;24.10;66.10
55135;DHT22;41031;44.750;11.308;2022-10-16T09:37:08;24.20;65.80
55135;DHT22;41031;44.750;11.308;2022-10-16T09:39:51;24.30;65.30
55135;DHT22;41031;44.750;11.308;2022-10-16T09:42:30;24.40;65.00
55135;DHT22;41031;44.750;11.308;2022-10-16T09:44:58;24.50;64.60
55135;DHT22;41031;44.750;11.308;2022-10-16T09:47:29;24.60;63.50
55135;DHT22;41031;44.750;11.308;2022-10-16T09:49:59;24.60;63.30
55135;DHT22;41031;44.750;11.308;2022-10-16T09:52:29;24.60;63.20
55135;DHT22;41031;44.750;11.308;2022-10-16T09:54:59;24.60;63.30
55135;DHT22;41031;44.750;11.308;2022-10-16T09:57:27;24.70;63.40
55135;DHT22;41031;44.750;11.308;2022-10-16T09:59:57;24.70;63.40
55135;DHT22;41031;44.750;11.308;2022-10-16T10:02:35;24.70;62.90
55135;DHT22;41031;44.750;11.308;2022-10-16T10:05:04;24.80;62.80
55135;DHT22;41031;44.750;11.308;2022-10-16T10:07:42;24.80;62.70
55135;DHT22;41031;44.750;11.308;2022-10-16T10:10:32;24.90;63.10
55135;DHT22;41031;44.750;11.308;2022-10-16T10:13:00;25.00;63.20
55135;DHT22;41031;44.750;11.308;2022-10-16T10:15:33;25.10;62.70
55135;DHT22;41031;44.750;11.308;2022-10-16T10:18:00;25.10;61.70
55135;DHT22;41031;44.750;11.308;2022-10-16T10:20:35;25.20;61.80
55135;DHT22;41031;44.750;11.308;2022-10-16T10:23:23;25.30;61.90
55135;DHT22;41031;44.750;11.308;2022-10-16T10:31:54;25.70;60.60
55135;DHT22;41031;44.750;11.308;2022-10-16T10:43:44;26.10;58.00
55135;DHT22;41031;44.750;11.308;2022-10-16T10:46:12;26.20;58.30
55135;DHT22;41031;44.750;11.308;2022-10-16T10:49:33;26.20;58.40
55135;DHT22;41031;44.750;11.308;2022-10-16T10:56:57;26.50;57.60
55135;DHT22;41031;44.750;11.308;2022-10-16T11:07:58;26.60;56.10
55135;DHT22;41031;44.750;11.308;2022-10-16T11:10:40;26.50;55.40
55135;DHT22;41031;44.750;11.308;2022-10-16T11:15:50;26.50;55.60
55135;DHT22;41031;44.750;11.308;2022-10-16T11:18:27;26.50;55.70
55135;DHT22;41031;44.750;11.308;2022-10-16T11:21:06;26.60;54.80
55135;DHT22;41031;44.750;11.308;2022-10-16T11:23:49;26.70;54.80
55135;DHT22;41031;44.750;11.308;2022-10-16T11:26:21;26.80;55.10
55135;DHT22;41031;44.750;11.308;2022-10-16T11:28:54;26.90;54.10
55135;DHT22;41031;44.750;11.308;2022-10-16T11:37:12;27.20;53.40
55135;DHT22;41031;44.750;11.308;2022-10-16T11:39:43;27.20;53.80
55135;DHT22;41031;44.750;11.308;2022-10-16T11:42:30;27.10;53.00
55135;DHT22;41031;44.750;11.308;2022-10-16T11:47:43;27.00;52.00
55135;DHT22;41031;44.750;11.308;2022-10-16T11:50:32;27.00;52.00
55135;DHT22;41031;44.750;11.308;2022-10-16T11:56:07;27.10;51.90
55135;DHT22;41031;44.750;11.308;2022-10-16T11:58:50;27.10;51.60
55135;DHT22;41031;44.750;11.308;2022-10-16T12:04:50;27.20;52.20
55135;DHT22;41031;44.750;11.308;2022-10-16T12:07:35;27.20;52.10
55135;DHT22;41031;44.750;11.308;2022-10-16T12:10:31;27.20;51.70
55135;DHT22;41031;44.750;11.308;2022-10-16T12:15:51;27.20;51.80
55135;DHT22;41031;44.750;11.308;2022-10-16T12:18:25;27.30;51.80
55135;DHT22;41031;44.750;11.308;2022-10-16T12:20:59;27.40;51.90
55135;DHT22;41031;44.750;11.308;2022-10-16T12:23:54;27.50;52.00
55135;DHT22;41031;44.750;11.308;2022-10-16T12:26:32;27.60;51.50
55135;DHT22;41031;44.750;11.308;2022-10-16T12:31:46;27.40;50.90
55135;DHT22;41031;44.750;11.308;2022-10-16T12:34:36;27.20;51.50
55135;DHT22;41031;44.750;11.308;2022-10-16T12:37:25;27.00;51.90
55135;DHT22;41031;44.750;11.308;2022-10-16T12:39:54;27.00;52.10
55135;DHT22;41031;44.750;11.308;2022-10-16T12:44:56;27.00;51.80
55135;DHT22;41031;44.750;11.308;2022-10-16T12:49:57;27.00;51.40
55135;DHT22;41031;44.750;11.308;2022-10-16T12:55:01;27.00;51.20
55135;DHT22;41031;44.750;11.308;2022-10-16T13:03:02;27.00;49.00
55135;DHT22;41031;44.750;11.308;2022-10-16T13:06:14;26.90;49.40
55135;DHT22;41031;44.750;11.308;2022-10-16T13:11:43;27.00;50.10
55135;DHT22;41031;44.750;11.308;2022-10-16T13:30:26;26.80;49.50
55135;DHT22;41031;44.750;11.308;2022-10-16T13:33:37;26.80;49.70
55135;DHT22;41031;44.750;11.308;2022-10-16T13:36:03;26.80;50.70
55135;DHT22;41031;44.750;11.308;2022-10-16T13:38:35;26.80;50.40
55135;DHT22;41031;44.750;11.308;2022-10-16T13:41:14;26.70;50.10
55135;DHT22;41031;44.750;11.308;2022-10-16T13:43:50;26.60;50.40
55135;DHT22;41031;44.750;11.308;2022-10-16T13:46:19;26.60;51.10
55135;DHT22;41031;44.750;11.308;2022-10-16T13:49:19;26.60;52.00
55135;DHT22;41031;44.750;11.308;2022-10-16T13:51:58;26.50;50.80
55135;DHT22;41031;44.750;11.308;2022-10-16T13:54:27;26.50;51.20
55135;DHT22;41031;44.750;11.308;2022-10-16T13:56:55;26.50;51.00
55135;DHT22;41031;44.750;11.308;2022-10-16T13:59:37;26.60;51.20
55135;DHT22;41031;44.750;11.308;2022-10-16T14:02:35;26.60;51.70
55135;DHT22;41031;44.750;11.308;2022-10-16T14:05:04;26.50;51.20
55135;DHT22;41031;44.750;11.308;2022-10-16T14:07:36;26.50;51.50
55135;DHT22;41031;44.750;11.308;2022-10-16T14:10:51;26.40;51.20
55135;DHT22;41031;44.750;11.308;2022-10-16T14:13:00;26.40;51.30
55135;DHT22;41031;44.750;11.308;2022-10-16T14:15:32;26.30;50.80
55135;DHT22;41031;44.750;11.308;2022-10-16T14:18:01;26.20;50.50
55135;DHT22;41031;44.750;11.308;2022-10-16T14:20:31;26.10;51.10
55135;DHT22;41031;44.750;11.308;2022-10-16T14:23:04;26.10;51.50
55135;DHT22;41031;44.750;11.308;2022-10-16T14:25:32;26.00;51.30
55135;DHT22;41031;44.750;11.308;2022-10-16T14:30:30;25.90;51.50
55135;DHT22;41031;44.750;11.308;2022-10-16T14:33:04;25.80;52.20
55135;DHT22;41031;44.750;11.308;2022-10-16T14:35:34;25.80;52.90
55135;DHT22;41031;44.750;11.308;2022-10-16T14:38:03;25.80;52.60
55135;DHT22;41031;44.750;11.308;2022-10-16T14:40:33;25.80;52.80
55135;DHT22;41031;44.750;11.308;2022-10-16T14:43:02;25.70;52.20
55135;DHT22;41031;44.750;11.308;2022-10-16T14:45:32;25.70;52.40
55135;DHT22;41031;44.750;11.308;2022-10-16T14:48:05;25.70;52.40
55135;DHT22;41031;44.750;11.308;2022-10-16T14:50:33;25.60;52.40
55135;DHT22;41031;44.750;11.308;2022-10-16T14:53:00;25.60;52.40
55135;DHT22;41031;44.750;11.308;2022-10-16T14:55:27;25.60;52.50
55135;DHT22;41031;44.750;11.308;2022-10-16T14:57:54;25.50;53.00
55135;DHT22;41031;44.750;11.308;2022-10-16T15:00:26;25.50;53.30
55135;DHT22;41031;44.750;11.308;2022-10-16T15:02:53;25.50;52.60
55135;DHT22;41031;44.750;11.308;2022-10-16T15:05:25;25.50;52.20
55135;DHT22;41031;44.750;11.308;2022-10-16T15:07:54;25.40;52.40
55135;DHT22;41031;44.750;11.308;2022-10-16T15:10:24;25.40;52.30
55135;DHT22;41031;44.750;11.308;2022-10-16T15:12:51;25.40;52.20
55135;DHT22;41031;44.750;11.308;2022-10-16T15:15:40;25.40;52.00
55135;DHT22;41031;44.750;11.308;2022-10-16T15:18:08;25.40;52.70
55135;DHT22;41031;44.750;11.308;2022-10-16T15:20:37;25.40;52.40
55135;DHT22;41031;44.750;11.308;2022-10-16T15:23:19;25.40;52.50
55135;DHT22;41031;44.750;11.308;2022-10-16T15:25:54;25.30;51.90
55135;DHT22;41031;44.750;11.308;2022-10-16T15:28:23;25.30;51.70
55135;DHT22;41031;44.750;11.308;2022-10-16T15:30:52;25.30;51.50
55135;DHT22;41031;44.750;11.308;2022-10-16T15:33:21;25.20;51.70
55135;DHT22;41031;44.750;11.308;2022-10-16T15:35:50;25.20;51.90
55135;DHT22;41031;44.750;11.308;2022-10-16T15:38:19;25.10;51.90
55135;DHT22;41031;44.750;11.308;2022-10-16T15:40:47;25.10;52.20
55135;DHT22;41031;44.750;11.308;2022-10-16T15:43:15;25.00;52.80
55135;DHT22;41031;44.750;11.308;2022-10-16T15:45:42;24.90;53.20
55135;DHT22;41031;44.750;11.308;2022-10-16T15:48:13;24.80;53.70
55135;DHT22;41031;44.750;11.308;2022-10-16T15:50:40;24.80;54.10
55135;DHT22;41031;44.750;11.308;2022-10-16T15:53:10;24.80;54.60
55135;DHT22;41031;44.750;11.308;2022-10-16T15:55:37;24.60;54.80
55135;DHT22;41031;44.750;11.308;2022-10-16T15:58:04;24.60;55.00
55135;DHT22;41031;44.750;11.308;2022-10-16T16:00:32;24.50;55.10
55135;DHT22;41031;44.750;11.308;2022-10-16T16:02:59;24.50;55.30
55135;DHT22;41031;44.750;11.308;2022-10-16T16:05:26;24.40;55.60
55135;DHT22;41031;44.750;11.308;2022-10-16T16:07:54;24.40;55.90
55135;DHT22;41031;44.750;11.308;2022-10-16T16:10:21;24.30;56.20
55135;DHT22;41031;44.750;11.308;2022-10-16T16:12:48;24.30;56.50
55135;DHT22;41031;44.750;11.308;2022-10-16T16:15:22;24.30;56.90
55135;DHT22;41031;44.750;11.308;2022-10-16T16:17:49;24.10;57.80
55135;DHT22;41031;44.750;11.308;2022-10-16T16:20:16;24.10;57.40
55135;DHT22;41031;44.750;11.308;2022-10-16T16:22:43;24.00;57.60
55135;DHT22;41031;44.750;11.308;2022-10-16T16:25:10;23.90;57.80
55135;DHT22;41031;44.750;11.308;2022-10-16T16:27:37;23.90;58.20
55135;DHT22;41031;44.750;11.308;2022-10-16T16:30:10;23.80;58.50
55135;DHT22;41031;44.750;11.308;2022-10-16T16:32:45;23.70;58.70
55135;DHT22;41031;44.750;11.308;2022-10-16T16:35:12;23.70;58.80
55135;DHT22;41031;44.750;11.308;2022-10-16T16:37:39;23.60;58.90
55135;DHT22;41031;44.750;11.308;2022-10-16T16:40:06;23.50;59.20
55135;DHT22;41031;44.750;11.308;2022-10-16T16:42:33;23.50;59.60
55135;DHT22;41031;44.750;11.308;2022-10-16T16:45:00;23.40;59.80
55135;DHT22;41031;44.750;11.308;2022-10-16T16:47:27;23.40;60.40
55135;DHT22;41031;44.750;11.308;2022-10-16T16:49:55;23.30;60.70
55135;DHT22;41031;44.750;11.308;2022-10-16T16:52:22;23.20;60.90
55135;DHT22;41031;44.750;11.308;2022-10-16T16:54:49;23.10;61.40
55135;DHT22;41031;44.750;11.308;2022-10-16T16:57:19;23.10;61.70
55135;DHT22;41031;44.750;11.308;2022-10-16T16:59:49;23.00;61.80
55135;DHT22;41031;44.750;11.308;2022-10-16T17:02:16;23.00;61.90
55135;DHT22;41031;44.750;11.308;2022-10-16T17:04:43;22.90;62.00
55135;DHT22;41031;44.750;11.308;2022-10-16T17:07:10;22.80;62.10
55135;DHT22;41031;44.750;11.308;2022-10-16T17:09:37;22.80;62.20
55135;DHT22;41031;44.750;11.308;2022-10-16T17:12:04;22.80;62.40
55135;DHT22;41031;44.750;11.308;2022-10-16T17:14:31;22.80;62.70
55135;DHT22;41031;44.750;11.308;2022-10-16T17:16:58;22.70;62.70
55135;DHT22;41031;44.750;11.308;2022-10-16T17:19:26;22.70;63.50
55135;DHT22;41031;44.750;11.308;2022-10-16T17:21:53;22.70;63.00
55135;DHT22;41031;44.750;11.308;2022-10-16T17:24:20;22.70;63.10
55135;DHT22;41031;44.750;11.308;2022-10-16T17:26:47;22.60;63.40
55135;DHT22;41031;44.750;11.308;2022-10-16T17:29:15;22.60;63.80
55135;DHT22;41031;44.750;11.308;2022-10-16T17:31:44;22.50;64.10
55135;DHT22;41031;44.750;11.308;2022-10-16T17:34:11;22.50;64.40
55135;DHT22;41031;44.750;11.308;2022-10-16T17:36:39;22.50;64.50
55135;DHT22;41031;44.750;11.308;2022-10-16T17:39:11;22.40;64.60
55135;DHT22;41031;44.750;11.308;2022-10-16T17:41:39;22.30;64.70
55135;DHT22;41031;44.750;11.308;2022-10-16T17:44:06;22.30;64.90